Clover Valley, Nevada Weather observations

Data are for 10 minute period ending at time listed.
 Day   Time   Solar   Ave.   Ave.  Ave.  Vector  Max.   Baro.   Total    
  of    of     Rad.   Air    Rel.  Wind   Wind   Wind  Press.  Precip.   
Year   Day            Temp.  Hum.  Speed  Dir.   Gust                    
2016   (PST)  Kw/m2    F      %     mph   deg.    mph    mb.     in.     
-------------------------------------------------------------------------
  37   16:20   0.07   24.9    73    6.5   345     9.3   837.6    0.00 
  37   16:30   0.05   24.2    73    6.8   348     8.1   837.7    0.00 
  37   16:40   0.03   24.1    72    7.3   351     9.6   837.6    0.00 
  37   16:50   0.02   23.6    72    7.1   347     8.7   837.7    0.00 
  37   17:00   0.01   22.7    74    6.2   337     7.5   837.7    0.00 
  37   17:10   0.01   21.6    76    5.3   336     6.4   837.7    0.00 
  37   17:20   0.00   21.0    77    6.0   343     7.1   837.7    0.00 
  37   17:30   0.00   20.6    77    6.7   328     9.3   837.6    0.00 
  37   17:40   0.00   21.0    75    6.7   316     8.8   837.6    0.00 
  37   17:50   0.00   20.5    75    5.8   302     8.1   837.6    0.00 
  37   18:00   0.00   18.8    78    4.0   316     7.7   837.7    0.00 
  37   18:10   0.00   17.5    80    1.8   238     4.2   837.9    0.00 
  37   18:20   0.00   18.3    81    3.9   290     6.1   837.9    0.00 
  37   18:30   0.00   19.8    76    4.6   322     6.1   837.8    0.00 
  37   18:40   0.00   18.9    77    3.9   324     4.9   837.8    0.00 
  37   18:50   0.00   18.4    79    4.4   346     5.8   837.8    0.00 
  37   19:00   0.00   17.1    80    5.7   320     8.0   837.9    0.00 
  37   19:10   0.00   16.1    82    4.5   331     7.7   837.9    0.00 
  37   19:20   0.00   15.6    83    5.7   348     9.3   837.8    0.00 
  37   19:30   0.00   15.5    84    5.0   338     8.4   837.9    0.00 
  37   19:40   0.00   14.7    84    3.0   343     5.8   837.9    0.00 
  37   19:50   0.00   14.1    84    1.5   228     5.0   837.9    0.00 
  37   20:00   0.00   13.5    85    2.4   261     4.9   838.0    0.00 
  37   20:10   0.00   13.1    86    3.2   255     6.2   838.0    0.00 
  37   20:20   0.00   13.6    86    4.8   250     6.8   838.0    0.00 
  37   20:30   0.00   13.9    84    2.1   287     4.2   838.1    0.00 
  37   20:40   0.00   14.1    85    1.4   321     4.2   838.1    0.00 
  37   20:50   0.00   15.1    84    2.8   296     4.7   838.3    0.00 
  37   21:00   0.00   14.1    83    4.7   306     7.4   838.6    0.00 
  37   21:10   0.00   12.9    84    6.1   311     8.4   838.7    0.00 
  37   21:20   0.00   13.1    85    6.8   308     8.1   838.8    0.00 
  37   21:30   0.00   13.4    85    5.9   312     8.3   838.8    0.00 
  37   21:40   0.00   13.4    84    5.6   308     8.8   838.8    0.00 
  37   21:50   0.00   13.7    85    5.2   325     7.2   838.8    0.00 
  37   22:00   0.00   14.8    85    4.3   328     6.1   838.8    0.00 
  37   22:10   0.00   14.3    83    3.1   324     7.5   838.9    0.00 
  37   22:20   0.00   12.1    83    3.1    40     5.5   838.9    0.00 
  37   22:30   0.00    9.2    84    1.7   142     4.7   839.0    0.00 
  37   22:40   0.00    9.2    87    2.8    53     5.1   839.0    0.00 
  37   22:50   0.00    9.5    87    2.3     4     4.1   838.8    0.00 
  37   23:00   0.00    9.1    86    2.8    11     4.6   839.0    0.00 
  37   23:10   0.00    8.2    87    1.4   358     3.6   839.0    0.00 
  37   23:20   0.00    8.7    88    4.6   345     7.4   839.1    0.00 
  37   23:30   0.00    8.8    88    4.0   356     7.9   839.0    0.00 
  37   23:40   0.00    9.1    89    4.0   354     5.8   839.0    0.00 
  37   23:50   0.00    9.4    88    2.2     3     3.9   838.9    0.00 
  38    0:00   0.00    8.2    88    2.6     1     4.3   838.9    0.00 
  38    0:10   0.00    8.3    89    2.8    15     5.1   838.9    0.00 
  38    0:20   0.00    7.4    89    4.9     9     6.5   839.0    0.00 
  38    0:30   0.00    8.2    90    3.6    13     5.8   838.8    0.00 
  38    0:40   0.00    7.8    89    2.2   287     4.5   838.7    0.00 
  38    0:50   0.00    6.6    87    3.6   234     5.7   838.7    0.00 
  38    1:00   0.00    6.2    89    3.4   228     5.6   838.7    0.00 
  38    1:10   0.00    6.0    88    2.1   180     4.2   838.8    0.00 
  38    1:20   0.00    4.6    86    1.8   147     2.7   838.9    0.00 
  38    1:30   0.00    4.6    88    1.8   185     3.1   838.9    0.00 
  38    1:40   0.00    4.3    87    0.5   118     1.7   838.8    0.00 
  38    1:50   0.00    4.2    87    0.1   152     0.7   838.9    0.00 
  38    2:00   0.00    4.5    88    0.0   155     0.7   839.0    0.00 
  38    2:10   0.00    4.7    88    3.1   323     4.0   839.2    0.00 
  38    2:20   0.00    5.0    88    3.7   329     4.3   839.4    0.00 
  38    2:30   0.00    4.7    88    4.7   314     6.4   839.5    0.00 
  38    2:40   0.00    4.7    89    5.5   317     6.2   839.6    0.00 
  38    2:50   0.00    5.5    90    3.9   319     5.3   839.7    0.00 
  38    3:00   0.00    5.6    89    2.0   356     3.4   839.6    0.00 
  38    3:10   0.00    6.3    90    3.5     8     4.3   839.5    0.00 
  38    3:20   0.00    4.3    86    4.2    30     4.7   839.5    0.00 
  38    3:30   0.00    3.9    88    3.3    19     4.1   839.6    0.00 
  38    3:40   0.00    3.7    85    3.6    26     4.2   839.7    0.00 
  38    3:50   0.00    3.0    86    2.0    46     3.7   839.8    0.00 
  38    4:00   0.00    3.2    87    3.4   237     5.1   839.9    0.00 
  38    4:10   0.00    2.9    87    3.5   253     4.5   840.0    0.00 
  38    4:20   0.00    3.7    89    2.5   267     4.4   840.0    0.00 
  38    4:30   0.00    4.4    88    2.5   295     3.4   840.1    0.00 
  38    4:40   0.00    4.1    88    2.4   298     3.3   840.3    0.00 
  38    4:50   0.00    4.4    88    3.4   284     4.7   840.3    0.00 
  38    5:00   0.00    3.5    87    1.0   200     3.7   840.3    0.00 
  38    5:10   0.00    2.1    86    1.6   157     3.3   840.3    0.00 
  38    5:20   0.00    2.2    86    1.1   164     2.9   840.3    0.00 
  38    5:30   0.00    2.3    87    1.5   232     3.7   840.4    0.00 
  38    5:40   0.00    2.2    86    2.9   251     3.9   840.3    0.00 
  38    5:50   0.00    1.8    86    2.2   295     4.2   840.4    0.00 
  38    6:00   0.00    1.7    86    1.2   108     3.6   840.3    0.00 
  38    6:10   0.00    2.0    86    1.6    84     2.6   840.2    0.00 
  38    6:20   0.00    2.2    86    1.2    68     2.1   840.1    0.00 
  38    6:30   0.00    2.1    86    3.0   281     4.4   840.1    0.00 
  38    6:40   0.00    2.1    86    2.2   296     3.7   840.2    0.00 
  38    6:50   0.00    1.9    86    3.9   303     5.6   840.4    0.00 
  38    7:00   0.01    2.3    87    3.0   295     4.6   840.4    0.00 
  38    7:10   0.03    3.2    87    2.3    20     5.3   840.7    0.00 
  38    7:20   0.07    3.1    86    3.6   106     5.8   841.0    0.00 
  38    7:30   0.09    5.1    85    1.4    16     2.9   841.2    0.00 
  38    7:40   0.12    6.3    84    1.6    13     3.0   841.4    0.00 
  38    7:50   0.13    7.1    82    2.2     3     3.8   841.7    0.00 
  38    8:00   0.15    8.4    80    0.3    24     1.8   841.7    0.00 
  38    8:10   0.17   10.7    73    0.5    71     3.4   841.6    0.00 
  38    8:20   0.22   10.1    78    1.8    70     4.2   841.8    0.00 
  38    8:30   0.25   14.4    75    0.4   126     2.6   841.9    0.00 
  38    8:40   0.24   17.2    67    0.0     0     0.0   841.9    0.00 
  38    8:50   0.28   18.6    65    0.1   128     1.3   842.0    0.00 
  38    9:00   0.33   14.2    74    4.4   102     5.8   842.2    0.00 
  38    9:10   0.33   18.1    76    1.6    96     3.7   842.3    0.00 
  38    9:20   0.37   18.2    72    2.7    64     3.9   842.6    0.00 
  38    9:30   0.40   20.4    72    2.1   135     4.5   842.7    0.00 
  38    9:40   0.41   23.4    67    2.4   218     4.4   842.8    0.00 
  38    9:50   0.46   23.8    66    1.2   308     1.9   842.8    0.00 
  38   10:00   0.48   23.9    67    1.4   308     2.6   842.7    0.00 
  38   10:10   0.51   24.4    67    2.8   272     4.3   842.7    0.00 
  38   10:20   0.53   26.5    63    1.2   268     2.5   842.8    0.00 
  38   10:30   0.55   28.1    61    0.3    96     2.0   842.7    0.00 
  38   10:40   0.55   32.1    54    0.6   260     2.6   842.6    0.00 
  38   10:50   0.56   28.3    61    2.5   267     4.2   842.5    0.00 
  38   11:00   0.54   30.6    58    3.1   185     4.7   842.5    0.00 
  38   11:10   0.56   30.7    56    2.6   178     4.6   842.4    0.00 
  38   11:20   0.57   25.6    66    6.7   137     8.9   842.3    0.00 
  38   11:30   0.56   24.5    72    6.0   139     7.4   842.3    0.00 
  38   11:40   0.62   26.4    67    3.3   165     5.2   842.2    0.00 
  38   11:50   0.62   30.4    58    2.9   189     3.9   842.2    0.00 
  38   12:00   0.58   30.9    56    2.2   176     3.1   842.0    0.00 
  38   12:10   0.51   29.0    60    1.8   140     3.1   842.0    0.00 
  38   12:20   0.56   33.1    53    0.2   154     1.0   841.9    0.00 
  38   12:30   0.57   34.3    51    0.6    41     2.3   841.8    0.00 
  38   12:40   0.58   31.9    56    2.4   328     3.0   841.7    0.00 
  38   12:50   0.56   31.0    60    2.2   315     3.7   841.5    0.00 
  38   13:00   0.56   31.9    60    2.0   106     3.4   841.4    0.00 
  38   13:10   0.54   30.3    64    2.3    73     4.7   841.4    0.00 
  38   13:20   0.51   29.5    66    3.9    11     5.4   841.3    0.00 
  38   13:30   0.52   30.2    64    2.5    26     3.5   841.2    0.00 
  38   13:40   0.48   30.7    66    2.5    48     2.9   841.1    0.00 
  38   13:50   0.47   30.8    69    3.0    30     5.0   841.1    0.00 
  38   14:00   0.44   30.2    69    3.7    29     4.8   841.1    0.00 
  38   14:10   0.41   30.6    66    2.5    44     3.4   841.1    0.00 
  38   14:20   0.41   30.4    67    3.3    24     4.0   841.1    0.00 
  38   14:30   0.41   31.5    64    2.1    13     3.9   841.0    0.00 
  38   14:40   0.40   32.6    57    2.4    10     2.9   841.0    0.00 
  38   14:50   0.37   32.5    60    4.3   342     5.5   841.1    0.00 
  38   15:00   0.35   32.4    60    3.3   357     4.6   840.9    0.00 
  38   15:10   0.31   32.3    58    3.1    26     3.7   841.0    0.00 
  38   15:20   0.28   32.0    58    2.6    48     3.7   841.0    0.00 
  38   15:30   0.26   32.5    57    1.7    31     2.2   841.0    0.00 
  38   15:40   0.22   32.1    59    2.4    28     2.9   841.0    0.00 
  38   15:50   0.20   31.4    59    3.3    34     4.2   841.2    0.00 
  38   16:00   0.17   31.1    64    2.2    16     3.1   841.2    0.00 
  38   16:10   0.14   30.9    63    2.4    15     3.1   841.4    0.00 

Return to Clover Valley graphs page.


Western Regional Climate Center,wrcc@dri.edu